createdAt,value
2016-09-21T00:00:41.309Z,1021.67
2016-09-21T00:01:41.332Z,1021.68
2016-09-21T00:02:41.397Z,1021.64
2016-09-21T00:03:41.371Z,1021.63
2016-09-21T00:04:41.390Z,1021.62
2016-09-21T00:05:41.411Z,1021.62
2016-09-21T00:06:41.427Z,1021.64
2016-09-21T00:07:41.501Z,1021.66
2016-09-21T00:08:41.469Z,1021.64
2016-09-21T00:09:41.491Z,1021.64
2016-09-21T00:10:41.505Z,1021.63
2016-09-21T00:11:41.534Z,1021.62
2016-09-21T00:12:41.596Z,1021.6
2016-09-21T00:13:41.565Z,1021.61
2016-09-21T00:14:41.590Z,1021.61
2016-09-21T00:15:41.610Z,1021.6
2016-09-21T00:16:41.645Z,1021.59
2016-09-21T00:17:41.653Z,1021.59
2016-09-21T00:18:41.663Z,1021.58
2016-09-21T00:19:41.691Z,1021.59
2016-09-21T00:20:41.709Z,1021.6
2016-09-21T00:21:41.730Z,1021.59
2016-09-21T00:22:41.749Z,1021.59
2016-09-21T00:23:41.772Z,1021.61
2016-09-21T00:24:41.788Z,1021.6
2016-09-21T00:25:41.804Z,1021.58
2016-09-21T00:26:41.828Z,1021.59
2016-09-21T00:27:41.847Z,1021.57
2016-09-21T00:28:41.870Z,1021.6
2016-09-21T00:29:41.884Z,1021.6
2016-09-21T00:30:41.901Z,1021.6
2016-09-21T00:31:41.921Z,1021.55
2016-09-21T00:32:41.956Z,1021.58
2016-09-21T00:33:41.966Z,1021.58
2016-09-21T00:34:41.983Z,1021.58
2016-09-21T00:35:42.001Z,1021.59
2016-09-21T00:36:42.031Z,1021.61
2016-09-21T00:37:42.039Z,1021.6
2016-09-21T00:38:42.065Z,1021.62
2016-09-21T00:39:42.081Z,1021.64
2016-09-21T00:40:42.101Z,1021.63
2016-09-21T00:41:42.118Z,1021.64
2016-09-21T00:42:42.142Z,1021.63
2016-09-21T00:43:42.161Z,1021.59
2016-09-21T00:44:42.192Z,1021.67
2016-09-21T00:45:42.198Z,1021.62
2016-09-21T00:46:42.233Z,1021.64
2016-09-21T00:47:42.239Z,1021.62
2016-09-21T00:48:42.311Z,1021.57
2016-09-21T00:49:42.278Z,1021.57
2016-09-21T00:50:42.349Z,1021.58
2016-09-21T00:51:42.319Z,1021.57
2016-09-21T00:52:42.339Z,1021.56
2016-09-21T00:53:42.361Z,1021.55
2016-09-21T00:54:42.377Z,1021.53
2016-09-21T00:55:42.402Z,1021.53
2016-09-21T00:56:42.413Z,1021.53
2016-09-21T00:57:42.438Z,1021.51
2016-09-21T00:58:42.451Z,1021.49
2016-09-21T00:59:42.476Z,1021.51
2016-09-21T01:00:42.495Z,1021.47
2016-09-21T01:01:42.519Z,1021.47
2016-09-21T01:02:42.537Z,1021.48
2016-09-21T01:03:42.557Z,1021.44
2016-09-21T01:04:42.572Z,1021.47
2016-09-21T01:05:42.588Z,1021.45
2016-09-21T01:06:42.608Z,1021.48
2016-09-21T01:07:42.629Z,1021.46
2016-09-21T01:08:42.649Z,1021.46
2016-09-21T01:09:42.680Z,1021.42
2016-09-21T01:10:42.686Z,1021.42
2016-09-21T01:11:42.708Z,1021.43
2016-09-21T01:12:42.732Z,1021.4
2016-09-21T01:13:42.748Z,1021.41
2016-09-21T01:14:42.766Z,1021.38
2016-09-21T01:15:42.787Z,1021.41
2016-09-21T01:16:42.804Z,1021.39
2016-09-21T01:17:42.830Z,1021.37
2016-09-21T01:18:42.839Z,1021.43
2016-09-21T01:19:42.865Z,1021.4
2016-09-21T01:20:42.886Z,1021.38
2016-09-21T01:21:42.897Z,1021.38
2016-09-21T01:22:42.921Z,1021.38
2016-09-21T01:23:42.940Z,1021.38
2016-09-21T01:24:42.957Z,1021.36
2016-09-21T01:25:42.990Z,1021.41
2016-09-21T01:26:42.996Z,1021.42
2016-09-21T01:27:43.070Z,1021.41
2016-09-21T01:28:43.040Z,1021.41
2016-09-21T01:29:43.060Z,1021.38
2016-09-21T01:30:43.079Z,1021.36
2016-09-21T01:31:43.096Z,1021.38
2016-09-21T01:32:43.116Z,1021.39
2016-09-21T01:33:43.134Z,1021.37
2016-09-21T01:34:43.154Z,1021.35
2016-09-21T01:35:43.173Z,1021.33
2016-09-21T01:36:43.187Z,1021.38
2016-09-21T01:37:43.206Z,1021.39
2016-09-21T01:38:43.227Z,1021.41
2016-09-21T01:39:43.248Z,1021.38
2016-09-21T01:40:43.270Z,1021.38
2016-09-21T01:41:43.286Z,1021.39
2016-09-21T01:42:43.310Z,1021.42
2016-09-21T01:43:43.330Z,1021.43
2016-09-21T01:44:43.346Z,1021.45
2016-09-21T01:45:43.365Z,1021.47
2016-09-21T01:46:43.378Z,1021.45
2016-09-21T01:47:43.399Z,1021.43
2016-09-21T01:48:43.420Z,1021.44
2016-09-21T01:49:43.437Z,1021.45
2016-09-21T01:50:43.451Z,1021.43
2016-09-21T01:51:43.478Z,1021.44
2016-09-21T01:52:43.497Z,1021.44
2016-09-21T01:53:43.510Z,1021.42
2016-09-21T01:54:43.534Z,1021.42
2016-09-21T01:55:43.552Z,1021.43
2016-09-21T01:56:43.571Z,1021.39
2016-09-21T01:57:43.590Z,1021.37
2016-09-21T01:58:43.610Z,1021.37
2016-09-21T01:59:43.624Z,1021.35
2016-09-21T02:00:43.648Z,1021.31
2016-09-21T02:01:43.669Z,1021.29
2016-09-21T02:02:43.681Z,1021.29
2016-09-21T02:03:43.707Z,1021.3
2016-09-21T02:04:43.725Z,1021.31
2016-09-21T02:05:43.747Z,1021.26
2016-09-21T02:06:43.756Z,1021.25
2016-09-21T02:07:43.778Z,1021.25
2016-09-21T02:08:43.799Z,1021.25
2016-09-21T02:09:43.816Z,1021.24
2016-09-21T02:10:43.835Z,1021.23
2016-09-21T02:11:43.852Z,1021.23
2016-09-21T02:12:43.877Z,1021.23
2016-09-21T02:13:43.894Z,1021.24
2016-09-21T02:14:43.913Z,1021.24
2016-09-21T02:15:43.937Z,1021.24
2016-09-21T02:16:43.947Z,1021.29
2016-09-21T02:17:44.011Z,1021.27
2016-09-21T02:18:43.988Z,1021.27
2016-09-21T02:19:44.003Z,1021.26
2016-09-21T02:20:44.028Z,1021.3
2016-09-21T02:21:44.048Z,1021.29
2016-09-21T02:22:44.111Z,1021.31
2016-09-21T02:23:44.076Z,1021.28
2016-09-21T02:24:44.100Z,1021.31
2016-09-21T02:25:44.121Z,1021.31
2016-09-21T02:26:44.137Z,1021.29
2016-09-21T02:27:44.208Z,1021.31
2016-09-21T02:28:44.173Z,1021.28
2016-09-21T02:29:44.193Z,1021.28
2016-09-21T02:30:44.209Z,1021.27
2016-09-21T02:31:44.234Z,1021.26
2016-09-21T02:32:44.298Z,1021.28
2016-09-21T02:33:44.271Z,1021.29
2016-09-21T02:34:44.289Z,1021.26
2016-09-21T02:35:44.309Z,1021.26
2016-09-21T02:36:44.325Z,1021.22
2016-09-21T02:37:44.346Z,1021.24
2016-09-21T02:38:44.362Z,1021.24
2016-09-21T02:39:44.380Z,1021.22
2016-09-21T02:40:44.398Z,1021.26
2016-09-21T02:41:44.420Z,1021.22
2016-09-21T02:42:44.436Z,1021.25
2016-09-21T02:43:44.508Z,1021.27
2016-09-21T02:44:44.477Z,1021.24
2016-09-21T02:45:44.599Z,1021.23
2016-09-21T02:46:44.506Z,1021.26
2016-09-21T02:47:44.538Z,1021.24
2016-09-21T02:48:44.553Z,1021.24
2016-09-21T02:49:44.569Z,1021.25
2016-09-21T02:50:44.588Z,1021.25
2016-09-21T02:51:44.609Z,1021.29
2016-09-21T02:52:44.624Z,1021.22
2016-09-21T02:53:44.653Z,1021.26
2016-09-21T02:54:44.671Z,1021.26
2016-09-21T02:55:44.689Z,1021.27
2016-09-21T02:56:44.698Z,1021.32
2016-09-21T02:57:44.716Z,1021.29
2016-09-21T02:58:44.784Z,1021.29
2016-09-21T02:59:44.753Z,1021.28
2016-09-21T03:00:44.826Z,1021.3
2016-09-21T03:01:44.794Z,1021.32
2016-09-21T03:02:44.810Z,1021.3
2016-09-21T03:03:44.828Z,1021.3
2016-09-21T03:04:44.847Z,1021.3
2016-09-21T03:05:44.867Z,1021.27
2016-09-21T03:06:44.886Z,1021.33
2016-09-21T03:07:44.909Z,1021.32
2016-09-21T03:08:44.930Z,1021.35
2016-09-21T03:09:44.964Z,1021.32
2016-09-21T03:10:44.958Z,1021.31
2016-09-21T03:11:44.976Z,1021.33
2016-09-21T03:12:44.996Z,1021.33
2016-09-21T03:13:45.015Z,1021.33
2016-09-21T03:14:45.040Z,1021.36
2016-09-21T03:15:45.053Z,1021.35
2016-09-21T03:16:45.070Z,1021.34
2016-09-21T03:17:45.088Z,1021.36
2016-09-21T03:18:45.112Z,1021.37
2016-09-21T03:19:45.129Z,1021.39
2016-09-21T03:20:45.150Z,1021.33
2016-09-21T03:21:45.171Z,1021.37
2016-09-21T03:22:45.190Z,1021.35
2016-09-21T03:23:45.202Z,1021.34
2016-09-21T03:24:45.222Z,1021.31
2016-09-21T03:25:45.241Z,1021.32
2016-09-21T03:26:45.256Z,1021.31
2016-09-21T03:27:45.273Z,1021.3
2016-09-21T03:28:45.293Z,1021.32
2016-09-21T03:29:45.310Z,1021.32
2016-09-21T03:30:45.329Z,1021.32
2016-09-21T03:31:45.351Z,1021.3
2016-09-21T03:32:45.367Z,1021.32
2016-09-21T03:33:45.388Z,1021.28
2016-09-21T03:34:45.403Z,1021.3
2016-09-21T03:35:45.419Z,1021.3
2016-09-21T03:36:45.439Z,1021.28
2016-09-21T03:37:45.461Z,1021.29
2016-09-21T03:38:45.479Z,1021.28
2016-09-21T03:39:45.507Z,1021.31
2016-09-21T03:40:45.519Z,1021.31
2016-09-21T03:41:45.535Z,1021.29
2016-09-21T03:42:45.560Z,1021.31
2016-09-21T03:43:45.566Z,1021.33
2016-09-21T03:44:45.589Z,1021.33
2016-09-21T03:45:45.613Z,1021.33
2016-09-21T03:46:45.628Z,1021.31
2016-09-21T03:47:45.640Z,1021.33
2016-09-21T03:48:45.663Z,1021.33
2016-09-21T03:49:45.691Z,1021.31
2016-09-21T03:50:45.697Z,1021.3
2016-09-21T03:51:45.721Z,1021.33
2016-09-21T03:52:45.743Z,1021.32
2016-09-21T03:53:45.757Z,1021.31
2016-09-21T03:54:45.781Z,1021.33
2016-09-21T03:55:45.800Z,1021.34
2016-09-21T03:56:46.062Z,1021.36
2016-09-21T03:57:46.028Z,1021.37
2016-09-21T03:58:46.045Z,1021.36
2016-09-21T03:59:46.019Z,1021.4
2016-09-21T04:00:46.034Z,1021.38
2016-09-21T04:01:46.100Z,1021.38
2016-09-21T04:02:46.073Z,1021.39
2016-09-21T04:03:46.142Z,1021.37
2016-09-21T04:04:46.112Z,1021.41
2016-09-21T04:05:46.078Z,1021.41
2016-09-21T04:06:46.102Z,1021.4
2016-09-21T04:07:46.060Z,1021.36
2016-09-21T04:08:46.136Z,1021.36
2016-09-21T04:09:46.100Z,1021.37
2016-09-21T04:10:46.071Z,1021.37
2016-09-21T04:11:46.084Z,1021.36
2016-09-21T04:12:46.111Z,1021.4
2016-09-21T04:13:46.131Z,1021.4
2016-09-21T04:14:46.154Z,1021.4
2016-09-21T04:15:46.163Z,1021.39
2016-09-21T04:16:46.182Z,1021.39
2016-09-21T04:17:46.215Z,1021.41
2016-09-21T04:18:46.222Z,1021.42
2016-09-21T04:19:46.240Z,1021.39
2016-09-21T04:20:46.263Z,1021.38
2016-09-21T04:21:46.276Z,1021.43
2016-09-21T04:22:46.293Z,1021.41
2016-09-21T04:23:46.313Z,1021.44
2016-09-21T04:24:46.331Z,1021.46
2016-09-21T04:25:46.454Z,1021.45
2016-09-21T04:26:46.373Z,1021.45
2016-09-21T04:27:46.394Z,1021.41
2016-09-21T04:28:46.413Z,1021.43
2016-09-21T04:29:46.423Z,1021.45
2016-09-21T04:30:46.442Z,1021.47
2016-09-21T04:31:46.461Z,1021.39
2016-09-21T04:32:46.503Z,1021.44
2016-09-21T04:33:46.496Z,1021.45
2016-09-21T04:34:46.516Z,1021.46
2016-09-21T04:35:46.530Z,1021.45
2016-09-21T04:36:46.558Z,1021.44
2016-09-21T04:37:46.623Z,1021.44
2016-09-21T04:38:46.617Z,1021.47
2016-09-21T04:39:46.612Z,1021.43
2016-09-21T04:40:46.742Z,1021.44
2016-09-21T04:41:46.650Z,1021.44
2016-09-21T04:42:46.712Z,1021.46
2016-09-21T04:43:46.696Z,1021.44
2016-09-21T04:44:46.704Z,1021.47
2016-09-21T04:45:46.724Z,1021.45
2016-09-21T04:46:46.738Z,1021.47
2016-09-21T04:47:46.756Z,1021.5
2016-09-21T04:48:46.772Z,1021.53
2016-09-21T04:49:46.796Z,1021.5
2016-09-21T04:50:46.813Z,1021.49
2016-09-21T04:51:46.920Z,1021.52
2016-09-21T04:52:46.900Z,1021.49
2016-09-21T04:53:46.874Z,1021.5
2016-09-21T04:54:46.882Z,1021.53
2016-09-21T04:55:46.932Z,1021.55
2016-09-21T04:56:46.922Z,1021.58
2016-09-21T04:57:46.944Z,1021.58
2016-09-21T04:58:46.963Z,1021.59
2016-09-21T04:59:46.982Z,1021.57
2016-09-21T05:00:46.995Z,1021.54
2016-09-21T05:01:47.025Z,1021.53
2016-09-21T05:02:47.037Z,1021.55
2016-09-21T05:03:47.057Z,1021.56
2016-09-21T05:04:47.073Z,1021.56
2016-09-21T05:05:47.090Z,1021.58
2016-09-21T05:06:47.136Z,1021.58
2016-09-21T05:07:47.124Z,1021.59
2016-09-21T05:08:47.193Z,1021.6
2016-09-21T05:09:47.158Z,1021.62
2016-09-21T05:10:47.194Z,1021.62
2016-09-21T05:11:47.205Z,1021.64
2016-09-21T05:12:47.216Z,1021.65
2016-09-21T05:13:47.236Z,1021.66
2016-09-21T05:14:47.255Z,1021.64
2016-09-21T05:15:47.275Z,1021.65
2016-09-21T05:16:47.291Z,1021.64
2016-09-21T05:17:47.313Z,1021.65
2016-09-21T05:18:47.330Z,1021.62
2016-09-21T05:19:47.347Z,1021.61
2016-09-21T05:20:47.366Z,1021.57
2016-09-21T05:21:47.384Z,1021.59
2016-09-21T05:22:47.404Z,1021.56
2016-09-21T05:23:47.422Z,1021.57
2016-09-21T05:24:47.439Z,1021.56
2016-09-21T05:25:47.461Z,1021.55
2016-09-21T05:26:47.473Z,1021.53
2016-09-21T05:27:47.500Z,1021.54
2016-09-21T05:28:47.513Z,1021.54
2016-09-21T05:29:47.535Z,1021.49
2016-09-21T05:30:47.554Z,1021.5
2016-09-21T05:31:47.576Z,1021.48
2016-09-21T05:32:47.595Z,1021.49
2016-09-21T05:33:47.612Z,1021.47
2016-09-21T05:34:47.633Z,1021.5
2016-09-21T05:35:47.642Z,1021.5
2016-09-21T05:36:47.664Z,1021.5
2016-09-21T05:37:47.695Z,1021.51
2016-09-21T05:38:47.704Z,1021.49
2016-09-21T05:39:47.722Z,1021.5
2016-09-21T05:40:47.747Z,1021.49
2016-09-21T05:41:47.763Z,1021.47
2016-09-21T05:42:47.783Z,1021.5
2016-09-21T05:43:47.806Z,1021.51
2016-09-21T05:44:47.825Z,1021.52
2016-09-21T05:45:47.857Z,1021.5
2016-09-21T05:46:47.864Z,1021.51
2016-09-21T05:47:47.884Z,1021.5
2016-09-21T05:48:47.905Z,1021.49
2016-09-21T05:49:47.924Z,1021.49
2016-09-21T05:50:47.941Z,1021.52
2016-09-21T05:51:47.964Z,1021.51
2016-09-21T05:52:47.976Z,1021.52
2016-09-21T05:53:47.995Z,1021.55
2016-09-21T05:54:48.024Z,1021.54
2016-09-21T05:55:48.034Z,1021.56
2016-09-21T05:56:48.055Z,1021.55
2016-09-21T05:57:48.075Z,1021.52
2016-09-21T05:58:48.094Z,1021.54
2016-09-21T05:59:48.114Z,1021.55
2016-09-21T06:00:48.136Z,1021.55
2016-09-21T06:01:48.155Z,1021.56
2016-09-21T06:02:48.171Z,1021.58
2016-09-21T06:03:48.196Z,1021.6
2016-09-21T06:04:48.215Z,1021.65
2016-09-21T06:05:48.232Z,1021.67
2016-09-21T06:06:48.251Z,1021.67
2016-09-21T06:07:48.336Z,1021.66
2016-09-21T06:08:48.293Z,1021.64
2016-09-21T06:09:48.323Z,1021.63
2016-09-21T06:10:48.327Z,1021.66
2016-09-21T06:11:48.407Z,1021.62
2016-09-21T06:12:48.374Z,1021.61
2016-09-21T06:13:48.393Z,1021.64
2016-09-21T06:14:48.416Z,1021.65
2016-09-21T06:15:48.438Z,1021.61
2016-09-21T06:16:48.455Z,1021.65
2016-09-21T06:17:48.482Z,1021.66
2016-09-21T06:18:48.504Z,1021.63
2016-09-21T06:19:48.530Z,1021.63
2016-09-21T06:20:48.546Z,1021.67
2016-09-21T06:21:48.575Z,1021.69
2016-09-21T06:22:48.644Z,1021.7
2016-09-21T06:23:48.612Z,1021.7
2016-09-21T06:24:48.645Z,1021.68
2016-09-21T06:25:48.673Z,1021.61
2016-09-21T06:26:48.682Z,1021.58
2016-09-21T06:27:48.763Z,1021.63
2016-09-21T06:28:48.737Z,1021.53
2016-09-21T06:29:48.757Z,1021.52
2016-09-21T06:30:48.780Z,1021.57
2016-09-21T06:31:48.814Z,1021.61
2016-09-21T06:32:48.877Z,1021.61
2016-09-21T06:33:48.901Z,1021.56
2016-09-21T06:34:48.877Z,1021.6
2016-09-21T06:35:48.900Z,1021.57
2016-09-21T06:36:48.924Z,1021.59
2016-09-21T06:37:48.999Z,1021.6
2016-09-21T06:38:48.972Z,1021.62
2016-09-21T06:39:48.989Z,1021.64
2016-09-21T06:40:49.014Z,1021.63
2016-09-21T06:41:49.035Z,1021.56
2016-09-21T06:42:49.151Z,1021.59
2016-09-21T06:43:49.086Z,1021.64
2016-09-21T06:44:49.177Z,1021.65
2016-09-21T06:45:49.143Z,1021.66
2016-09-21T06:46:49.155Z,1021.67
2016-09-21T06:47:49.233Z,1021.66
2016-09-21T06:48:49.203Z,1021.68
2016-09-21T06:49:49.225Z,1021.66
2016-09-21T06:50:49.247Z,1021.67
2016-09-21T06:51:49.271Z,1021.72
2016-09-21T06:52:49.303Z,1021.71
2016-09-21T06:53:49.320Z,1021.75
2016-09-21T06:54:49.336Z,1021.73
2016-09-21T06:55:49.374Z,1021.76
2016-09-21T06:56:49.390Z,1021.74
2016-09-21T06:57:49.409Z,1021.8
2016-09-21T06:58:49.432Z,1021.84
2016-09-21T06:59:49.462Z,1021.89
2016-09-21T07:00:49.479Z,1021.92
2016-09-21T07:01:49.499Z,1021.88
2016-09-21T07:02:49.524Z,1021.9
2016-09-21T07:03:49.553Z,1021.89
2016-09-21T07:04:49.577Z,1021.87
2016-09-21T07:05:49.595Z,1021.87
2016-09-21T07:06:49.631Z,1021.85
2016-09-21T07:07:49.654Z,1021.86
2016-09-21T07:08:49.670Z,1021.85
2016-09-21T07:09:49.694Z,1021.81
2016-09-21T07:10:49.717Z,1021.8
2016-09-21T07:11:49.741Z,1021.78
2016-09-21T07:12:49.771Z,1021.76
2016-09-21T07:13:49.799Z,1021.79
2016-09-21T07:14:49.820Z,1021.75
2016-09-21T07:15:49.844Z,1021.76
2016-09-21T07:16:49.870Z,1021.76
2016-09-21T07:17:49.900Z,1021.74
2016-09-21T07:18:49.927Z,1021.76
2016-09-21T07:19:49.951Z,1021.72
2016-09-21T07:20:49.979Z,1021.68
2016-09-21T07:21:50.012Z,1021.65
2016-09-21T07:22:50.032Z,1021.66
2016-09-21T07:23:50.061Z,1021.69
2016-09-21T07:24:50.090Z,1021.69
2016-09-21T07:25:50.110Z,1021.75
2016-09-21T07:26:50.136Z,1021.72
2016-09-21T07:27:50.158Z,1021.74
2016-09-21T07:28:50.184Z,1021.69
2016-09-21T07:29:50.208Z,1021.69
2016-09-21T07:30:50.233Z,1021.69
2016-09-21T07:31:50.261Z,1021.7
2016-09-21T07:32:50.297Z,1021.72
2016-09-21T07:33:50.307Z,1021.71
2016-09-21T07:34:50.334Z,1021.73
2016-09-21T07:35:50.359Z,1021.76
2016-09-21T07:36:50.385Z,1021.77
2016-09-21T07:37:50.422Z,1021.78
2016-09-21T07:38:50.435Z,1021.78
2016-09-21T07:39:50.459Z,1021.8
2016-09-21T07:40:50.483Z,1021.81
2016-09-21T07:41:50.559Z,1021.91
2016-09-21T07:42:50.528Z,1021.89
2016-09-21T07:43:50.557Z,1021.91
2016-09-21T07:44:50.580Z,1021.92
2016-09-21T07:45:50.609Z,1021.93
2016-09-21T07:46:50.638Z,1021.93
2016-09-21T07:47:50.654Z,1022.01
2016-09-21T07:48:50.678Z,1021.99
2016-09-21T07:49:50.707Z,1021.98
2016-09-21T07:50:50.738Z,1021.99
2016-09-21T07:51:50.761Z,1021.97
2016-09-21T07:52:50.777Z,1021.92
2016-09-21T07:53:50.809Z,1021.94
2016-09-21T07:54:50.837Z,1021.94
2016-09-21T07:55:50.868Z,1021.96
2016-09-21T07:56:50.879Z,1021.97
2016-09-21T07:57:50.959Z,1021.96
2016-09-21T07:58:50.937Z,1021.92
2016-09-21T07:59:50.956Z,1021.92
2016-09-21T08:00:50.978Z,1021.89
2016-09-21T08:01:51.006Z,1021.88
2016-09-21T08:02:51.026Z,1021.87
2016-09-21T08:03:51.057Z,1021.86
2016-09-21T08:04:51.075Z,1021.89
2016-09-21T08:05:51.100Z,1021.91
2016-09-21T08:06:51.123Z,1021.91
2016-09-21T08:07:51.152Z,1021.93
2016-09-21T08:08:51.176Z,1021.97
2016-09-21T08:09:51.210Z,1021.97
2016-09-21T08:10:51.223Z,1022.01
2016-09-21T08:11:51.256Z,1021.97
2016-09-21T08:12:51.272Z,1021.98
2016-09-21T08:13:51.295Z,1021.93
2016-09-21T08:14:51.375Z,1021.9
2016-09-21T08:15:51.347Z,1021.9
2016-09-21T08:16:51.368Z,1021.92
2016-09-21T08:17:51.398Z,1021.92
2016-09-21T08:18:51.416Z,1021.94
2016-09-21T08:19:51.434Z,1021.95
2016-09-21T08:20:51.465Z,1021.93
2016-09-21T08:21:51.495Z,1021.95
2016-09-21T08:22:51.509Z,1021.96
2016-09-21T08:23:51.541Z,1021.97
2016-09-21T08:24:51.565Z,1021.97
2016-09-21T08:25:51.594Z,1022
2016-09-21T08:26:51.616Z,1021.98
2016-09-21T08:27:51.633Z,1021.99
2016-09-21T08:28:51.651Z,1021.97
2016-09-21T08:29:51.677Z,1021.95
2016-09-21T08:30:51.702Z,1021.93
2016-09-21T08:31:51.724Z,1021.95
2016-09-21T08:32:51.753Z,1021.95
2016-09-21T08:33:51.995Z,1021.95
2016-09-21T08:34:51.795Z,1021.99
2016-09-21T08:35:51.819Z,1022
2016-09-21T08:36:51.846Z,1021.99
2016-09-21T08:37:51.873Z,1021.99
2016-09-21T08:38:51.892Z,1021.98
2016-09-21T08:39:51.920Z,1022
2016-09-21T08:40:51.935Z,1021.99
2016-09-21T08:41:51.964Z,1021.97
2016-09-21T08:42:51.985Z,1021.97
2016-09-21T08:43:52.016Z,1022
2016-09-21T08:44:52.146Z,1022
2016-09-21T08:45:52.059Z,1021.96
2016-09-21T08:46:52.081Z,1021.98
2016-09-21T08:47:52.099Z,1021.92
2016-09-21T08:48:52.127Z,1021.95
2016-09-21T08:49:52.155Z,1021.93
2016-09-21T08:50:52.175Z,1021.93
2016-09-21T08:51:52.203Z,1021.94
2016-09-21T08:52:52.222Z,1021.95
2016-09-21T08:53:52.248Z,1021.96
2016-09-21T08:54:52.266Z,1022
2016-09-21T08:55:52.295Z,1022.01
2016-09-21T08:56:52.319Z,1022.04
2016-09-21T08:57:52.342Z,1022.03
2016-09-21T08:58:52.363Z,1022.04
2016-09-21T08:59:52.396Z,1022.06
2016-09-21T09:00:52.416Z,1022.07
2016-09-21T09:01:52.439Z,1022.09
2016-09-21T09:02:52.512Z,1022.08
2016-09-21T09:03:52.482Z,1022.09
2016-09-21T09:04:52.521Z,1022.07
2016-09-21T09:05:52.532Z,1022.05
2016-09-21T09:06:52.556Z,1022.04
2016-09-21T09:07:52.632Z,1022.02
2016-09-21T09:08:52.607Z,1022.03
2016-09-21T09:09:52.632Z,1021.98
2016-09-21T09:10:52.656Z,1021.99
2016-09-21T09:11:52.682Z,1021.94
2016-09-21T09:12:52.706Z,1021.98
2016-09-21T09:13:52.728Z,1021.95
2016-09-21T09:14:52.758Z,1021.96
2016-09-21T09:15:52.777Z,1021.92
2016-09-21T09:16:52.796Z,1021.95
2016-09-21T09:17:52.877Z,1021.97
2016-09-21T09:18:52.842Z,1021.99
2016-09-21T09:19:52.877Z,1022.01
2016-09-21T09:20:52.897Z,1021.97
2016-09-21T09:21:52.920Z,1021.93
2016-09-21T09:22:53.052Z,1021.94
2016-09-21T09:23:52.977Z,1021.95
2016-09-21T09:24:52.998Z,1021.92
2016-09-21T09:25:53.018Z,1021.97
2016-09-21T09:26:53.046Z,1021.96
2016-09-21T09:27:53.129Z,1021.93
2016-09-21T09:28:53.093Z,1021.95
2016-09-21T09:29:53.115Z,1021.96
2016-09-21T09:30:53.138Z,1021.94
2016-09-21T09:31:53.282Z,1021.87
2016-09-21T09:32:53.246Z,1021.91
2016-09-21T09:33:53.214Z,1021.92
2016-09-21T09:34:53.250Z,1021.92
2016-09-21T09:35:53.266Z,1021.86
2016-09-21T09:36:53.297Z,1021.88
2016-09-21T09:37:53.320Z,1021.85
2016-09-21T09:38:53.341Z,1021.81
2016-09-21T09:39:53.375Z,1021.83
2016-09-21T09:40:53.387Z,1021.83
2016-09-21T09:41:53.409Z,1021.82
2016-09-21T09:42:53.448Z,1021.81
2016-09-21T09:43:53.465Z,1021.8
2016-09-21T09:44:53.488Z,1021.8
2016-09-21T09:45:53.519Z,1021.77
2016-09-21T09:46:53.540Z,1021.75
2016-09-21T09:47:53.611Z,1021.8
2016-09-21T09:48:53.588Z,1021.76
2016-09-21T09:49:53.615Z,1021.78
2016-09-21T09:50:53.639Z,1021.76
2016-09-21T09:51:53.667Z,1021.72
2016-09-21T09:52:53.692Z,1021.71
2016-09-21T09:53:53.718Z,1021.74
2016-09-21T09:54:53.738Z,1021.73
2016-09-21T09:55:53.767Z,1021.7
2016-09-21T09:56:53.794Z,1021.71
2016-09-21T09:57:53.818Z,1021.71
2016-09-21T09:58:53.840Z,1021.69
2016-09-21T09:59:53.868Z,1021.68
2016-09-21T10:00:53.889Z,1021.65
2016-09-21T10:01:53.918Z,1021.74
2016-09-21T10:02:53.992Z,1021.71
2016-09-21T10:03:53.967Z,1021.68
2016-09-21T10:04:54.192Z,1021.72
2016-09-21T10:05:54.018Z,1021.75
2016-09-21T10:06:54.049Z,1021.72
2016-09-21T10:07:54.079Z,1021.74
2016-09-21T10:08:54.101Z,1021.72
2016-09-21T10:09:54.124Z,1021.69
2016-09-21T10:10:54.145Z,1021.7
2016-09-21T10:11:54.171Z,1021.7
2016-09-21T10:12:54.244Z,1021.68
2016-09-21T10:13:54.222Z,1021.66
2016-09-21T10:14:54.250Z,1021.64
2016-09-21T10:15:54.277Z,1021.66
2016-09-21T10:16:54.298Z,1021.65
2016-09-21T10:17:54.378Z,1021.6
2016-09-21T10:18:54.354Z,1021.62
2016-09-21T10:19:54.370Z,1021.62
2016-09-21T10:20:54.403Z,1021.63
2016-09-21T10:21:54.429Z,1021.66
2016-09-21T10:22:54.453Z,1021.6
2016-09-21T10:23:54.479Z,1021.64
2016-09-21T10:24:54.506Z,1021.63
2016-09-21T10:25:54.528Z,1021.64
2016-09-21T10:26:54.567Z,1021.67
2016-09-21T10:27:54.587Z,1021.67
2016-09-21T10:28:54.627Z,1021.66
2016-09-21T10:29:54.634Z,1021.64
2016-09-21T10:30:54.659Z,1021.6
2016-09-21T10:31:54.686Z,1021.65
2016-09-21T10:32:54.712Z,1021.6
2016-09-21T10:33:54.738Z,1021.58
2016-09-21T10:34:54.768Z,1021.62
2016-09-21T10:35:54.787Z,1021.58
2016-09-21T10:36:54.819Z,1021.61
2016-09-21T10:37:54.950Z,1021.68
2016-09-21T10:38:54.873Z,1021.64
2016-09-21T10:39:54.909Z,1021.64
2016-09-21T10:40:54.941Z,1021.61
2016-09-21T10:41:54.951Z,1021.65
2016-09-21T10:42:54.967Z,1021.64
2016-09-21T10:43:54.998Z,1021.64
2016-09-21T10:44:55.029Z,1021.61
2016-09-21T10:45:55.046Z,1021.62
2016-09-21T10:46:55.073Z,1021.62
2016-09-21T10:47:55.157Z,1021.67
2016-09-21T10:48:55.139Z,1021.69
2016-09-21T10:49:55.159Z,1021.68
2016-09-21T10:50:55.184Z,1021.68
2016-09-21T10:51:55.209Z,1021.67
2016-09-21T10:52:55.234Z,1021.66
2016-09-21T10:53:55.257Z,1021.6
2016-09-21T10:54:55.289Z,1021.6
2016-09-21T10:55:55.320Z,1021.63
2016-09-21T10:56:55.351Z,1021.59
2016-09-21T10:57:55.423Z,1021.57
2016-09-21T10:58:55.401Z,1021.62
2016-09-21T10:59:55.422Z,1021.62
2016-09-21T11:00:55.457Z,1021.59
2016-09-21T11:01:55.489Z,1021.62
2016-09-21T11:02:55.508Z,1021.58
2016-09-21T11:03:55.542Z,1021.56
2016-09-21T11:04:55.558Z,1021.62
2016-09-21T11:05:55.585Z,1021.59
2016-09-21T11:06:55.615Z,1021.59
2016-09-21T11:07:55.649Z,1021.54
2016-09-21T11:08:55.677Z,1021.59
2016-09-21T11:09:55.709Z,1021.58
2016-09-21T11:10:55.729Z,1021.58
2016-09-21T11:11:55.758Z,1021.61
2016-09-21T11:12:55.841Z,1021.57
2016-09-21T11:13:55.815Z,1021.59
2016-09-21T11:14:55.840Z,1021.57
2016-09-21T11:15:55.867Z,1021.56
2016-09-21T11:16:55.899Z,1021.57
2016-09-21T11:17:55.972Z,1021.58
2016-09-21T11:18:55.948Z,1021.61
2016-09-21T11:19:55.978Z,1021.57
2016-09-21T11:20:56.005Z,1021.6
2016-09-21T11:21:56.034Z,1021.59
2016-09-21T11:22:56.114Z,1021.58
2016-09-21T11:23:56.086Z,1021.58
2016-09-21T11:24:56.132Z,1021.56
2016-09-21T11:25:56.150Z,1021.57
2016-09-21T11:26:56.178Z,1021.57
2016-09-21T11:27:56.257Z,1021.59
2016-09-21T11:28:56.226Z,1021.55
2016-09-21T11:29:56.260Z,1021.55
2016-09-21T11:30:56.282Z,1021.56
2016-09-21T11:31:56.311Z,1021.51
2016-09-21T11:32:56.340Z,1021.55
2016-09-21T11:33:56.556Z,1021.53
2016-09-21T11:34:56.395Z,1021.55
2016-09-21T11:35:56.423Z,1021.54
2016-09-21T11:36:56.450Z,1021.55
2016-09-21T11:37:56.537Z,1021.49
2016-09-21T11:38:56.508Z,1021.5
2016-09-21T11:39:56.536Z,1021.51
2016-09-21T11:40:56.560Z,1021.51
2016-09-21T11:41:56.744Z,1021.51
2016-09-21T11:42:56.677Z,1021.51
2016-09-21T11:43:56.696Z,1021.52
2016-09-21T11:44:56.678Z,1021.53
2016-09-21T11:45:56.698Z,1021.53
2016-09-21T11:46:56.730Z,1021.5
2016-09-21T11:47:56.808Z,1021.52
2016-09-21T11:48:56.783Z,1021.5
2016-09-21T11:49:56.818Z,1021.46
2016-09-21T11:50:56.867Z,1021.46
2016-09-21T11:51:56.872Z,1021.47
2016-09-21T11:52:57.049Z,1021.46
2016-09-21T11:53:56.929Z,1021.5
2016-09-21T11:54:56.951Z,1021.43
2016-09-21T11:55:56.985Z,1021.43
2016-09-21T11:56:57.002Z,1021.42
2016-09-21T11:57:57.038Z,1021.46
2016-09-21T11:58:57.067Z,1021.46
2016-09-21T11:59:57.090Z,1021.45
2016-09-21T12:00:57.129Z,1021.44
2016-09-21T12:01:57.148Z,1021.42
2016-09-21T12:02:57.179Z,1021.45
2016-09-21T12:03:57.213Z,1021.5
2016-09-21T12:04:57.235Z,1021.54
2016-09-21T12:05:57.372Z,1021.5
2016-09-21T12:06:57.289Z,1021.49
2016-09-21T12:07:57.377Z,1021.49
2016-09-21T12:08:57.346Z,1021.46